sensor_id;sensor_type;location;lat;lon;timestamp;P1;durP1;ratioP1;P2;durP2;ratioP2
9248;SDS011;4660;41.768;26.198;2023-04-24T00:00:54;8.83;;;5.70;;
9248;SDS011;4660;41.768;26.198;2023-04-24T00:03:22;8.13;;;5.27;;
9248;SDS011;4660;41.768;26.198;2023-04-24T00:05:48;6.07;;;5.47;;
9248;SDS011;4660;41.768;26.198;2023-04-24T00:08:15;9.10;;;4.70;;
9248;SDS011;4660;41.768;26.198;2023-04-24T00:10:40;12.77;;;5.60;;
9248;SDS011;4660;41.768;26.198;2023-04-24T00:13:06;8.23;;;5.20;;
9248;SDS011;4660;41.768;26.198;2023-04-24T00:15:32;6.37;;;4.90;;
9248;SDS011;4660;41.768;26.198;2023-04-24T00:17:58;17.53;;;5.53;;
9248;SDS011;4660;41.768;26.198;2023-04-24T00:20:23;11.40;;;5.90;;
9248;SDS011;4660;41.768;26.198;2023-04-24T00:22:49;9.50;;;5.80;;
9248;SDS011;4660;41.768;26.198;2023-04-24T00:25:15;9.87;;;5.97;;
9248;SDS011;4660;41.768;26.198;2023-04-24T00:27:40;9.37;;;6.00;;
9248;SDS011;4660;41.768;26.198;2023-04-24T00:30:06;11.07;;;5.70;;
9248;SDS011;4660;41.768;26.198;2023-04-24T00:32:32;13.67;;;5.93;;
9248;SDS011;4660;41.768;26.198;2023-04-24T00:34:57;10.87;;;6.43;;
9248;SDS011;4660;41.768;26.198;2023-04-24T00:37:23;11.53;;;6.30;;
9248;SDS011;4660;41.768;26.198;2023-04-24T00:39:48;16.57;;;6.77;;
9248;SDS011;4660;41.768;26.198;2023-04-24T00:42:14;10.67;;;6.17;;
9248;SDS011;4660;41.768;26.198;2023-04-24T00:44:39;12.60;;;6.10;;
9248;SDS011;4660;41.768;26.198;2023-04-24T00:47:06;16.13;;;6.83;;
9248;SDS011;4660;41.768;26.198;2023-04-24T00:49:32;10.03;;;6.70;;
9248;SDS011;4660;41.768;26.198;2023-04-24T00:51:57;10.70;;;6.47;;
9248;SDS011;4660;41.768;26.198;2023-04-24T00:54:24;11.13;;;6.63;;
9248;SDS011;4660;41.768;26.198;2023-04-24T00:56:50;7.57;;;6.70;;
9248;SDS011;4660;41.768;26.198;2023-04-24T00:59:16;8.97;;;6.50;;
9248;SDS011;4660;41.768;26.198;2023-04-24T01:01:43;11.80;;;5.67;;
9248;SDS011;4660;41.768;26.198;2023-04-24T01:04:10;13.03;;;6.73;;
9248;SDS011;4660;41.768;26.198;2023-04-24T01:06:37;11.50;;;6.10;;
9248;SDS011;4660;41.768;26.198;2023-04-24T01:09:05;12.07;;;7.17;;
9248;SDS011;4660;41.768;26.198;2023-04-24T01:11:33;10.30;;;6.93;;
9248;SDS011;4660;41.768;26.198;2023-04-24T01:13:59;9.30;;;7.40;;
9248;SDS011;4660;41.768;26.198;2023-04-24T01:16:25;10.40;;;7.37;;
9248;SDS011;4660;41.768;26.198;2023-04-24T01:18:50;7.97;;;6.87;;
9248;SDS011;4660;41.768;26.198;2023-04-24T01:21:16;11.17;;;6.80;;
9248;SDS011;4660;41.768;26.198;2023-04-24T01:23:46;10.40;;;7.23;;
9248;SDS011;4660;41.768;26.198;2023-04-24T01:26:13;12.87;;;6.37;;
9248;SDS011;4660;41.768;26.198;2023-04-24T01:28:40;9.20;;;7.03;;
9248;SDS011;4660;41.768;26.198;2023-04-24T01:31:06;12.73;;;6.80;;
9248;SDS011;4660;41.768;26.198;2023-04-24T01:33:32;12.17;;;6.53;;
9248;SDS011;4660;41.768;26.198;2023-04-24T01:35:58;11.20;;;7.27;;
9248;SDS011;4660;41.768;26.198;2023-04-24T01:38:23;10.37;;;7.40;;
9248;SDS011;4660;41.768;26.198;2023-04-24T01:40:49;11.67;;;6.90;;
9248;SDS011;4660;41.768;26.198;2023-04-24T01:43:16;12.13;;;8.00;;
9248;SDS011;4660;41.768;26.198;2023-04-24T01:45:42;10.07;;;7.60;;
9248;SDS011;4660;41.768;26.198;2023-04-24T01:48:08;8.70;;;7.23;;
9248;SDS011;4660;41.768;26.198;2023-04-24T01:50:34;9.67;;;6.93;;
9248;SDS011;4660;41.768;26.198;2023-04-24T01:52:59;9.03;;;6.83;;
9248;SDS011;4660;41.768;26.198;2023-04-24T01:55:25;8.80;;;6.90;;
9248;SDS011;4660;41.768;26.198;2023-04-24T01:57:52;15.13;;;7.30;;
9248;SDS011;4660;41.768;26.198;2023-04-24T02:00:21;13.23;;;7.00;;
9248;SDS011;4660;41.768;26.198;2023-04-24T02:02:47;12.73;;;6.90;;
9248;SDS011;4660;41.768;26.198;2023-04-24T02:05:12;10.97;;;7.70;;
9248;SDS011;4660;41.768;26.198;2023-04-24T02:07:38;14.63;;;7.33;;
9248;SDS011;4660;41.768;26.198;2023-04-24T02:10:03;12.87;;;7.20;;
9248;SDS011;4660;41.768;26.198;2023-04-24T02:12:29;12.80;;;6.90;;
9248;SDS011;4660;41.768;26.198;2023-04-24T02:14:55;11.07;;;6.93;;
9248;SDS011;4660;41.768;26.198;2023-04-24T02:17:21;12.03;;;7.20;;
9248;SDS011;4660;41.768;26.198;2023-04-24T02:19:46;9.83;;;6.83;;
9248;SDS011;4660;41.768;26.198;2023-04-24T02:22:12;12.50;;;7.27;;
9248;SDS011;4660;41.768;26.198;2023-04-24T02:24:38;11.97;;;7.20;;
9248;SDS011;4660;41.768;26.198;2023-04-24T02:27:04;14.80;;;6.97;;
9248;SDS011;4660;41.768;26.198;2023-04-24T02:29:29;10.83;;;6.60;;
9248;SDS011;4660;41.768;26.198;2023-04-24T02:31:55;8.43;;;6.27;;
9248;SDS011;4660;41.768;26.198;2023-04-24T02:34:21;11.60;;;6.43;;
9248;SDS011;4660;41.768;26.198;2023-04-24T02:36:46;9.63;;;6.83;;
9248;SDS011;4660;41.768;26.198;2023-04-24T02:39:12;9.30;;;6.83;;
9248;SDS011;4660;41.768;26.198;2023-04-24T02:41:38;12.47;;;6.37;;
9248;SDS011;4660;41.768;26.198;2023-04-24T02:44:03;14.00;;;6.10;;
9248;SDS011;4660;41.768;26.198;2023-04-24T02:46:29;18.47;;;6.23;;
9248;SDS011;4660;41.768;26.198;2023-04-24T02:48:55;9.77;;;6.00;;
9248;SDS011;4660;41.768;26.198;2023-04-24T02:51:20;13.70;;;6.30;;
9248;SDS011;4660;41.768;26.198;2023-04-24T02:53:46;9.40;;;6.43;;
9248;SDS011;4660;41.768;26.198;2023-04-24T02:56:11;12.27;;;7.20;;
9248;SDS011;4660;41.768;26.198;2023-04-24T02:58:40;8.93;;;6.30;;
9248;SDS011;4660;41.768;26.198;2023-04-24T03:01:05;9.40;;;6.10;;
9248;SDS011;4660;41.768;26.198;2023-04-24T03:03:31;9.73;;;6.50;;
9248;SDS011;4660;41.768;26.198;2023-04-24T03:05:57;10.50;;;5.80;;
9248;SDS011;4660;41.768;26.198;2023-04-24T03:08:23;11.67;;;6.10;;
9248;SDS011;4660;41.768;26.198;2023-04-24T03:10:49;9.30;;;6.17;;
9248;SDS011;4660;41.768;26.198;2023-04-24T03:13:15;8.47;;;5.83;;
9248;SDS011;4660;41.768;26.198;2023-04-24T03:15:41;9.73;;;6.97;;
9248;SDS011;4660;41.768;26.198;2023-04-24T03:18:07;11.13;;;7.13;;
9248;SDS011;4660;41.768;26.198;2023-04-24T03:20:32;11.10;;;7.50;;
9248;SDS011;4660;41.768;26.198;2023-04-24T03:22:58;11.83;;;7.40;;
9248;SDS011;4660;41.768;26.198;2023-04-24T03:25:24;11.57;;;6.80;;
9248;SDS011;4660;41.768;26.198;2023-04-24T03:27:49;9.83;;;6.23;;
9248;SDS011;4660;41.768;26.198;2023-04-24T03:30:15;9.00;;;6.17;;
9248;SDS011;4660;41.768;26.198;2023-04-24T03:32:40;16.03;;;6.23;;
9248;SDS011;4660;41.768;26.198;2023-04-24T03:35:06;9.60;;;6.47;;
9248;SDS011;4660;41.768;26.198;2023-04-24T03:37:33;12.03;;;6.30;;
9248;SDS011;4660;41.768;26.198;2023-04-24T03:39:59;11.87;;;6.13;;
9248;SDS011;4660;41.768;26.198;2023-04-24T03:42:24;13.80;;;5.97;;
9248;SDS011;4660;41.768;26.198;2023-04-24T03:44:50;11.67;;;5.90;;
9248;SDS011;4660;41.768;26.198;2023-04-24T03:47:16;13.30;;;6.17;;
9248;SDS011;4660;41.768;26.198;2023-04-24T03:49:41;10.93;;;5.87;;
9248;SDS011;4660;41.768;26.198;2023-04-24T03:52:07;13.03;;;7.37;;
9248;SDS011;4660;41.768;26.198;2023-04-24T03:54:32;10.53;;;6.00;;
9248;SDS011;4660;41.768;26.198;2023-04-24T03:56:58;12.33;;;6.00;;
9248;SDS011;4660;41.768;26.198;2023-04-24T03:59:24;9.70;;;5.67;;
9248;SDS011;4660;41.768;26.198;2023-04-24T04:01:49;9.60;;;5.63;;
9248;SDS011;4660;41.768;26.198;2023-04-24T04:04:14;9.30;;;5.57;;
9248;SDS011;4660;41.768;26.198;2023-04-24T04:06:40;10.23;;;5.77;;
9248;SDS011;4660;41.768;26.198;2023-04-24T04:09:05;11.60;;;6.20;;
9248;SDS011;4660;41.768;26.198;2023-04-24T04:11:32;10.27;;;5.63;;
9248;SDS011;4660;41.768;26.198;2023-04-24T04:13:58;12.30;;;5.93;;
9248;SDS011;4660;41.768;26.198;2023-04-24T04:16:23;10.43;;;5.47;;
9248;SDS011;4660;41.768;26.198;2023-04-24T04:18:49;11.17;;;5.90;;
9248;SDS011;4660;41.768;26.198;2023-04-24T04:21:15;11.23;;;6.17;;
9248;SDS011;4660;41.768;26.198;2023-04-24T04:23:40;9.70;;;5.67;;
9248;SDS011;4660;41.768;26.198;2023-04-24T04:26:06;17.80;;;6.43;;
9248;SDS011;4660;41.768;26.198;2023-04-24T04:28:33;12.47;;;6.00;;
9248;SDS011;4660;41.768;26.198;2023-04-24T04:30:58;10.20;;;5.67;;
9248;SDS011;4660;41.768;26.198;2023-04-24T04:33:24;9.47;;;5.57;;
9248;SDS011;4660;41.768;26.198;2023-04-24T04:35:51;10.77;;;5.70;;
9248;SDS011;4660;41.768;26.198;2023-04-24T04:38:17;8.47;;;5.53;;
9248;SDS011;4660;41.768;26.198;2023-04-24T04:40:44;10.83;;;6.00;;
9248;SDS011;4660;41.768;26.198;2023-04-24T04:43:10;10.93;;;6.63;;
9248;SDS011;4660;41.768;26.198;2023-04-24T04:45:36;13.07;;;6.33;;
9248;SDS011;4660;41.768;26.198;2023-04-24T04:48:04;12.03;;;6.33;;
9248;SDS011;4660;41.768;26.198;2023-04-24T04:50:33;11.13;;;6.47;;
9248;SDS011;4660;41.768;26.198;2023-04-24T04:52:58;10.17;;;6.23;;
9248;SDS011;4660;41.768;26.198;2023-04-24T04:55:24;12.10;;;7.33;;
9248;SDS011;4660;41.768;26.198;2023-04-24T04:57:50;9.70;;;6.83;;
9248;SDS011;4660;41.768;26.198;2023-04-24T05:00:17;9.53;;;6.80;;
9248;SDS011;4660;41.768;26.198;2023-04-24T05:02:43;9.83;;;6.93;;
9248;SDS011;4660;41.768;26.198;2023-04-24T05:05:12;14.07;;;7.27;;
9248;SDS011;4660;41.768;26.198;2023-04-24T05:07:38;10.27;;;7.13;;
9248;SDS011;4660;41.768;26.198;2023-04-24T05:10:06;13.07;;;7.03;;
9248;SDS011;4660;41.768;26.198;2023-04-24T05:12:36;18.77;;;7.30;;
9248;SDS011;4660;41.768;26.198;2023-04-24T05:15:02;19.23;;;8.20;;
9248;SDS011;4660;41.768;26.198;2023-04-24T05:17:28;12.63;;;7.73;;
9248;SDS011;4660;41.768;26.198;2023-04-24T05:19:54;16.27;;;8.10;;
9248;SDS011;4660;41.768;26.198;2023-04-24T05:22:20;13.77;;;8.37;;
9248;SDS011;4660;41.768;26.198;2023-04-24T05:24:46;15.60;;;9.73;;
9248;SDS011;4660;41.768;26.198;2023-04-24T05:27:13;12.57;;;9.17;;
9248;SDS011;4660;41.768;26.198;2023-04-24T05:29:40;15.97;;;8.47;;
9248;SDS011;4660;41.768;26.198;2023-04-24T05:32:06;11.13;;;7.80;;
9248;SDS011;4660;41.768;26.198;2023-04-24T05:34:33;14.93;;;8.60;;
9248;SDS011;4660;41.768;26.198;2023-04-24T05:37:00;10.63;;;8.43;;
9248;SDS011;4660;41.768;26.198;2023-04-24T05:39:28;12.60;;;8.73;;
9248;SDS011;4660;41.768;26.198;2023-04-24T05:44:29;12.70;;;8.93;;
9248;SDS011;4660;41.768;26.198;2023-04-24T05:46:57;12.23;;;8.03;;
9248;SDS011;4660;41.768;26.198;2023-04-24T05:49:26;13.13;;;9.50;;
9248;SDS011;4660;41.768;26.198;2023-04-24T05:51:54;15.50;;;9.13;;
9248;SDS011;4660;41.768;26.198;2023-04-24T05:54:22;16.97;;;8.50;;
9248;SDS011;4660;41.768;26.198;2023-04-24T05:57:05;16.23;;;7.83;;
9248;SDS011;4660;41.768;26.198;2023-04-24T05:59:33;11.33;;;7.77;;
9248;SDS011;4660;41.768;26.198;2023-04-24T06:02:07;12.93;;;8.57;;
9248;SDS011;4660;41.768;26.198;2023-04-24T06:04:35;13.90;;;8.40;;
9248;SDS011;4660;41.768;26.198;2023-04-24T06:07:00;16.50;;;8.53;;
9248;SDS011;4660;41.768;26.198;2023-04-24T06:09:30;17.90;;;10.23;;
9248;SDS011;4660;41.768;26.198;2023-04-24T06:11:56;14.07;;;8.20;;
9248;SDS011;4660;41.768;26.198;2023-04-24T06:14:22;10.13;;;8.13;;
9248;SDS011;4660;41.768;26.198;2023-04-24T06:16:49;10.70;;;8.10;;
9248;SDS011;4660;41.768;26.198;2023-04-24T06:19:42;12.57;;;8.90;;
9248;SDS011;4660;41.768;26.198;2023-04-24T06:22:13;11.63;;;8.43;;
9248;SDS011;4660;41.768;26.198;2023-04-24T06:49:28;21.63;;;10.40;;
9248;SDS011;4660;41.768;26.198;2023-04-24T06:52:01;31.30;;;10.77;;
9248;SDS011;4660;41.768;26.198;2023-04-24T07:30:50;12.67;;;6.17;;
9248;SDS011;4660;41.768;26.198;2023-04-24T07:33:37;9.57;;;5.73;;
9248;SDS011;4660;41.768;26.198;2023-04-24T07:36:14;11.60;;;6.33;;
9248;SDS011;4660;41.768;26.198;2023-04-24T07:45:18;10.43;;;6.13;;
9248;SDS011;4660;41.768;26.198;2023-04-24T08:07:07;12.77;;;5.23;;
9248;SDS011;4660;41.768;26.198;2023-04-24T08:10:37;9.20;;;5.63;;
9248;SDS011;4660;41.768;26.198;2023-04-24T08:13:59;12.93;;;6.47;;
9248;SDS011;4660;41.768;26.198;2023-04-24T08:16:53;14.93;;;6.77;;
9248;SDS011;4660;41.768;26.198;2023-04-24T08:19:26;8.55;;;5.57;;
9248;SDS011;4660;41.768;26.198;2023-04-24T08:22:31;10.25;;;6.18;;
9248;SDS011;4660;41.768;26.198;2023-04-24T08:27:38;11.00;;;4.97;;
9248;SDS011;4660;41.768;26.198;2023-04-24T08:33:09;9.60;;;5.07;;
9248;SDS011;4660;41.768;26.198;2023-04-24T08:35:47;7.23;;;5.37;;
9248;SDS011;4660;41.768;26.198;2023-04-24T08:38:17;11.03;;;5.03;;
9248;SDS011;4660;41.768;26.198;2023-04-24T09:22:06;8.50;;;5.15;;
9248;SDS011;4660;41.768;26.198;2023-04-24T09:28:39;10.18;;;6.03;;
9248;SDS011;4660;41.768;26.198;2023-04-24T09:31:11;10.43;;;5.20;;
9248;SDS011;4660;41.768;26.198;2023-04-24T09:34:23;7.00;;;5.50;;
9248;SDS011;4660;41.768;26.198;2023-04-24T09:37:11;8.93;;;4.82;;
9248;SDS011;4660;41.768;26.198;2023-04-24T09:40:16;9.30;;;5.13;;
9248;SDS011;4660;41.768;26.198;2023-04-24T09:42:54;6.32;;;5.00;;
9248;SDS011;4660;41.768;26.198;2023-04-24T09:53:31;8.25;;;5.45;;
9248;SDS011;4660;41.768;26.198;2023-04-24T09:56:39;7.30;;;4.65;;
9248;SDS011;4660;41.768;26.198;2023-04-24T09:59:56;10.55;;;5.20;;
9248;SDS011;4660;41.768;26.198;2023-04-24T10:10:52;7.43;;;4.75;;
9248;SDS011;4660;41.768;26.198;2023-04-24T10:21:59;9.50;;;3.90;;
9248;SDS011;4660;41.768;26.198;2023-04-24T10:24:41;6.72;;;4.50;;
9248;SDS011;4660;41.768;26.198;2023-04-24T10:38:16;7.35;;;4.15;;
9248;SDS011;4660;41.768;26.198;2023-04-24T10:41:57;8.65;;;3.00;;
9248;SDS011;4660;41.768;26.198;2023-04-24T10:59:24;7.30;;;4.10;;
9248;SDS011;4660;41.768;26.198;2023-04-24T11:02:36;6.05;;;3.30;;
9248;SDS011;4660;41.768;26.198;2023-04-24T11:16:30;7.50;;;3.55;;
9248;SDS011;4660;41.768;26.198;2023-04-24T11:19:29;7.15;;;3.22;;
9248;SDS011;4660;41.768;26.198;2023-04-24T11:21:59;7.05;;;3.33;;
9248;SDS011;4660;41.768;26.198;2023-04-24T11:27:40;10.63;;;3.90;;
9248;SDS011;4660;41.768;26.198;2023-04-24T11:30:10;5.00;;;2.80;;
9248;SDS011;4660;41.768;26.198;2023-04-24T11:32:42;4.57;;;2.75;;
9248;SDS011;4660;41.768;26.198;2023-04-24T11:35:20;6.47;;;2.72;;
9248;SDS011;4660;41.768;26.198;2023-04-24T11:37:57;5.10;;;2.72;;
9248;SDS011;4660;41.768;26.198;2023-04-24T11:40:25;6.70;;;2.90;;
9248;SDS011;4660;41.768;26.198;2023-04-24T11:42:52;11.30;;;3.10;;
9248;SDS011;4660;41.768;26.198;2023-04-24T11:45:27;9.50;;;3.60;;
9248;SDS011;4660;41.768;26.198;2023-04-24T11:47:58;9.77;;;3.05;;
9248;SDS011;4660;41.768;26.198;2023-04-24T11:50:31;5.43;;;2.65;;
9248;SDS011;4660;41.768;26.198;2023-04-24T11:53:06;4.78;;;2.85;;
9248;SDS011;4660;41.768;26.198;2023-04-24T11:55:32;4.72;;;3.00;;
9248;SDS011;4660;41.768;26.198;2023-04-24T11:58:09;9.02;;;3.03;;
9248;SDS011;4660;41.768;26.198;2023-04-24T12:03:16;9.90;;;3.25;;
9248;SDS011;4660;41.768;26.198;2023-04-24T12:06:08;8.82;;;3.50;;
9248;SDS011;4660;41.768;26.198;2023-04-24T12:09:08;6.57;;;3.53;;
9248;SDS011;4660;41.768;26.198;2023-04-24T12:15:46;5.57;;;2.83;;
9248;SDS011;4660;41.768;26.198;2023-04-24T12:18:21;11.20;;;3.67;;
9248;SDS011;4660;41.768;26.198;2023-04-24T12:20:54;5.30;;;2.78;;
9248;SDS011;4660;41.768;26.198;2023-04-24T12:23:44;2.78;;;2.42;;
9248;SDS011;4660;41.768;26.198;2023-04-24T12:26:19;11.88;;;3.28;;
9248;SDS011;4660;41.768;26.198;2023-04-24T12:29:01;8.38;;;2.35;;
9248;SDS011;4660;41.768;26.198;2023-04-24T12:31:32;7.10;;;3.22;;
9248;SDS011;4660;41.768;26.198;2023-04-24T12:34:20;15.32;;;4.40;;
9248;SDS011;4660;41.768;26.198;2023-04-24T12:36:53;7.40;;;2.70;;
9248;SDS011;4660;41.768;26.198;2023-04-24T12:39:19;5.57;;;2.92;;
9248;SDS011;4660;41.768;26.198;2023-04-24T12:41:55;4.07;;;2.90;;
9248;SDS011;4660;41.768;26.198;2023-04-24T12:44:32;10.88;;;3.42;;
9248;SDS011;4660;41.768;26.198;2023-04-24T12:47:00;4.45;;;3.17;;
9248;SDS011;4660;41.768;26.198;2023-04-24T12:49:30;4.10;;;2.25;;
9248;SDS011;4660;41.768;26.198;2023-04-24T12:51:57;10.55;;;2.53;;
9248;SDS011;4660;41.768;26.198;2023-04-24T12:54:24;3.85;;;2.28;;
9248;SDS011;4660;41.768;26.198;2023-04-24T12:56:57;12.32;;;4.18;;
9248;SDS011;4660;41.768;26.198;2023-04-24T12:59:22;4.35;;;2.67;;
9248;SDS011;4660;41.768;26.198;2023-04-24T13:01:48;9.55;;;3.15;;
9248;SDS011;4660;41.768;26.198;2023-04-24T13:04:16;7.88;;;3.30;;
9248;SDS011;4660;41.768;26.198;2023-04-24T13:06:45;4.20;;;2.67;;
9248;SDS011;4660;41.768;26.198;2023-04-24T13:09:13;5.35;;;2.58;;
9248;SDS011;4660;41.768;26.198;2023-04-24T13:11:44;2.85;;;2.40;;
9248;SDS011;4660;41.768;26.198;2023-04-24T13:14:11;5.05;;;2.72;;
9248;SDS011;4660;41.768;26.198;2023-04-24T13:16:37;5.72;;;2.58;;
9248;SDS011;4660;41.768;26.198;2023-04-24T13:19:07;5.00;;;2.47;;
9248;SDS011;4660;41.768;26.198;2023-04-24T13:21:55;2.97;;;2.40;;
9248;SDS011;4660;41.768;26.198;2023-04-24T13:24:27;3.45;;;2.30;;
9248;SDS011;4660;41.768;26.198;2023-04-24T13:27:17;6.75;;;2.70;;
9248;SDS011;4660;41.768;26.198;2023-04-24T13:29:56;9.20;;;2.90;;
9248;SDS011;4660;41.768;26.198;2023-04-24T13:33:09;2.60;;;2.40;;
9248;SDS011;4660;41.768;26.198;2023-04-24T13:38:37;5.57;;;2.40;;
9248;SDS011;4660;41.768;26.198;2023-04-24T13:41:14;6.22;;;3.30;;
9248;SDS011;4660;41.768;26.198;2023-04-24T13:44:23;6.40;;;3.17;;
9248;SDS011;4660;41.768;26.198;2023-04-24T13:47:32;10.90;;;3.08;;
9248;SDS011;4660;41.768;26.198;2023-04-24T13:50:14;7.30;;;3.05;;
9248;SDS011;4660;41.768;26.198;2023-04-24T13:52:47;8.88;;;2.90;;
9248;SDS011;4660;41.768;26.198;2023-04-24T13:55:17;5.97;;;2.75;;
9248;SDS011;4660;41.768;26.198;2023-04-24T13:58:06;4.28;;;2.55;;
9248;SDS011;4660;41.768;26.198;2023-04-24T14:00:59;8.10;;;3.38;;
9248;SDS011;4660;41.768;26.198;2023-04-24T14:07:03;7.57;;;2.90;;
9248;SDS011;4660;41.768;26.198;2023-04-24T14:12:19;6.68;;;3.28;;
9248;SDS011;4660;41.768;26.198;2023-04-24T14:17:52;5.93;;;3.58;;
9248;SDS011;4660;41.768;26.198;2023-04-24T14:20:24;8.07;;;3.17;;
9248;SDS011;4660;41.768;26.198;2023-04-24T14:23:34;4.70;;;3.45;;
9248;SDS011;4660;41.768;26.198;2023-04-24T14:26:10;3.72;;;3.22;;
9248;SDS011;4660;41.768;26.198;2023-04-24T14:28:45;11.48;;;4.55;;
9248;SDS011;4660;41.768;26.198;2023-04-24T14:31:27;6.88;;;2.72;;
9248;SDS011;4660;41.768;26.198;2023-04-24T14:34:17;7.38;;;3.25;;
9248;SDS011;4660;41.768;26.198;2023-04-24T14:37:25;7.35;;;3.60;;
9248;SDS011;4660;41.768;26.198;2023-04-24T14:40:51;3.92;;;3.58;;
9248;SDS011;4660;41.768;26.198;2023-04-24T14:43:27;9.10;;;5.55;;
9248;SDS011;4660;41.768;26.198;2023-04-24T14:46:24;6.63;;;3.97;;
9248;SDS011;4660;41.768;26.198;2023-04-24T14:49:35;4.03;;;3.58;;
9248;SDS011;4660;41.768;26.198;2023-04-24T14:52:17;5.95;;;3.97;;
9248;SDS011;4660;41.768;26.198;2023-04-24T14:54:54;7.88;;;3.40;;
9248;SDS011;4660;41.768;26.198;2023-04-24T14:58:22;6.88;;;2.88;;
9248;SDS011;4660;41.768;26.198;2023-04-24T15:03:27;5.47;;;2.92;;
9248;SDS011;4660;41.768;26.198;2023-04-24T15:08:56;5.47;;;3.45;;
9248;SDS011;4660;41.768;26.198;2023-04-24T15:12:29;4.25;;;3.33;;
9248;SDS011;4660;41.768;26.198;2023-04-24T15:15:15;7.97;;;3.22;;
9248;SDS011;4660;41.768;26.198;2023-04-24T15:18:22;4.00;;;2.67;;
9248;SDS011;4660;41.768;26.198;2023-04-24T15:21:04;6.68;;;3.00;;
9248;SDS011;4660;41.768;26.198;2023-04-24T15:23:34;6.60;;;3.45;;
9248;SDS011;4660;41.768;26.198;2023-04-24T15:38:25;4.28;;;2.50;;
9248;SDS011;4660;41.768;26.198;2023-04-24T15:41:10;10.98;;;3.40;;
9248;SDS011;4660;41.768;26.198;2023-04-24T15:57:22;4.95;;;2.90;;
9248;SDS011;4660;41.768;26.198;2023-04-24T16:00:18;4.15;;;2.92;;
9248;SDS011;4660;41.768;26.198;2023-04-24T16:07:37;5.40;;;3.60;;
9248;SDS011;4660;41.768;26.198;2023-04-24T16:10:58;6.00;;;3.40;;
9248;SDS011;4660;41.768;26.198;2023-04-24T16:13:28;12.77;;;3.75;;
9248;SDS011;4660;41.768;26.198;2023-04-24T16:16:22;6.00;;;3.55;;
9248;SDS011;4660;41.768;26.198;2023-04-24T16:19:17;7.28;;;3.45;;
9248;SDS011;4660;41.768;26.198;2023-04-24T16:22:04;9.52;;;4.40;;
9248;SDS011;4660;41.768;26.198;2023-04-24T16:24:35;6.85;;;4.05;;
9248;SDS011;4660;41.768;26.198;2023-04-24T16:27:12;5.95;;;4.60;;
9248;SDS011;4660;41.768;26.198;2023-04-24T16:32:20;9.05;;;7.03;;
9248;SDS011;4660;41.768;26.198;2023-04-24T16:34:54;6.70;;;5.97;;
9248;SDS011;4660;41.768;26.198;2023-04-24T16:38:06;8.90;;;6.03;;
9248;SDS011;4660;41.768;26.198;2023-04-24T16:43:36;11.15;;;7.85;;
9248;SDS011;4660;41.768;26.198;2023-04-24T16:46:52;16.08;;;8.65;;
9248;SDS011;4660;41.768;26.198;2023-04-24T16:53:30;4.88;;;3.83;;
9248;SDS011;4660;41.768;26.198;2023-04-24T16:59:10;5.20;;;4.70;;
9248;SDS011;4660;41.768;26.198;2023-04-24T17:01:37;8.45;;;4.20;;
9248;SDS011;4660;41.768;26.198;2023-04-24T17:04:04;4.72;;;3.47;;
9248;SDS011;4660;41.768;26.198;2023-04-24T17:06:32;10.32;;;5.05;;
9248;SDS011;4660;41.768;26.198;2023-04-24T17:08:58;4.15;;;3.80;;
9248;SDS011;4660;41.768;26.198;2023-04-24T17:11:25;5.50;;;3.92;;
9248;SDS011;4660;41.768;26.198;2023-04-24T17:16:43;6.93;;;3.83;;
9248;SDS011;4660;41.768;26.198;2023-04-24T17:19:12;4.45;;;3.60;;
9248;SDS011;4660;41.768;26.198;2023-04-24T17:21:38;5.05;;;3.40;;
9248;SDS011;4660;41.768;26.198;2023-04-24T17:24:05;3.60;;;3.25;;
9248;SDS011;4660;41.768;26.198;2023-04-24T17:26:31;7.80;;;3.90;;
9248;SDS011;4660;41.768;26.198;2023-04-24T17:28:57;7.97;;;3.13;;
9248;SDS011;4660;41.768;26.198;2023-04-24T17:31:25;4.53;;;3.45;;
9248;SDS011;4660;41.768;26.198;2023-04-24T17:47:14;12.20;;;7.88;;
9248;SDS011;4660;41.768;26.198;2023-04-24T17:55:40;5.72;;;3.67;;
9248;SDS011;4660;41.768;26.198;2023-04-24T17:58:11;4.15;;;3.60;;
9248;SDS011;4660;41.768;26.198;2023-04-24T18:00:38;6.43;;;3.67;;
9248;SDS011;4660;41.768;26.198;2023-04-24T18:03:07;6.13;;;4.07;;
9248;SDS011;4660;41.768;26.198;2023-04-24T18:05:35;3.85;;;3.55;;
9248;SDS011;4660;41.768;26.198;2023-04-24T18:08:03;6.57;;;4.10;;
9248;SDS011;4660;41.768;26.198;2023-04-24T18:13:07;5.03;;;3.28;;
9248;SDS011;4660;41.768;26.198;2023-04-24T18:15:38;4.95;;;3.75;;
9248;SDS011;4660;41.768;26.198;2023-04-24T18:18:10;4.78;;;3.75;;
9248;SDS011;4660;41.768;26.198;2023-04-24T18:20:38;4.68;;;3.70;;
9248;SDS011;4660;41.768;26.198;2023-04-24T18:23:45;4.75;;;3.75;;
9248;SDS011;4660;41.768;26.198;2023-04-24T18:26:17;6.83;;;4.43;;
9248;SDS011;4660;41.768;26.198;2023-04-24T18:28:43;4.47;;;3.30;;
9248;SDS011;4660;41.768;26.198;2023-04-24T18:31:12;3.92;;;3.25;;
9248;SDS011;4660;41.768;26.198;2023-04-24T18:33:39;4.93;;;3.20;;
9248;SDS011;4660;41.768;26.198;2023-04-24T18:36:06;4.43;;;3.47;;
9248;SDS011;4660;41.768;26.198;2023-04-24T18:38:35;5.90;;;3.28;;
9248;SDS011;4660;41.768;26.198;2023-04-24T18:43:39;5.82;;;3.47;;
9248;SDS011;4660;41.768;26.198;2023-04-24T18:46:17;9.68;;;3.85;;
9248;SDS011;4660;41.768;26.198;2023-04-24T18:51:37;3.50;;;2.83;;
9248;SDS011;4660;41.768;26.198;2023-04-24T18:54:31;3.30;;;2.80;;
9248;SDS011;4660;41.768;26.198;2023-04-24T18:57:19;4.97;;;3.00;;
9248;SDS011;4660;41.768;26.198;2023-04-24T18:59:47;4.00;;;2.60;;
9248;SDS011;4660;41.768;26.198;2023-04-24T19:03:14;3.30;;;2.78;;
9248;SDS011;4660;41.768;26.198;2023-04-24T19:05:43;4.25;;;2.97;;
9248;SDS011;4660;41.768;26.198;2023-04-24T19:08:11;6.90;;;2.95;;
9248;SDS011;4660;41.768;26.198;2023-04-24T19:10:37;8.68;;;3.03;;
9248;SDS011;4660;41.768;26.198;2023-04-24T19:15:39;3.83;;;3.42;;
9248;SDS011;4660;41.768;26.198;2023-04-24T19:18:09;6.13;;;3.03;;
9248;SDS011;4660;41.768;26.198;2023-04-24T19:20:38;3.58;;;3.15;;
9248;SDS011;4660;41.768;26.198;2023-04-24T19:28:27;4.30;;;3.00;;
9248;SDS011;4660;41.768;26.198;2023-04-24T19:31:05;4.00;;;2.97;;
9248;SDS011;4660;41.768;26.198;2023-04-24T19:33:31;5.45;;;3.63;;
9248;SDS011;4660;41.768;26.198;2023-04-24T19:35:57;3.30;;;3.00;;
9248;SDS011;4660;41.768;26.198;2023-04-24T19:38:23;8.90;;;3.30;;
9248;SDS011;4660;41.768;26.198;2023-04-24T19:41:11;5.77;;;2.70;;
9248;SDS011;4660;41.768;26.198;2023-04-24T19:46:13;8.07;;;2.90;;
9248;SDS011;4660;41.768;26.198;2023-04-24T19:48:39;7.47;;;3.67;;
9248;SDS011;4660;41.768;26.198;2023-04-24T19:51:05;7.38;;;3.72;;
9248;SDS011;4660;41.768;26.198;2023-04-24T20:04:58;6.63;;;3.90;;
9248;SDS011;4660;41.768;26.198;2023-04-24T20:07:27;9.20;;;4.00;;
9248;SDS011;4660;41.768;26.198;2023-04-24T20:09:53;8.23;;;4.23;;
9248;SDS011;4660;41.768;26.198;2023-04-24T20:12:18;5.67;;;4.80;;
9248;SDS011;4660;41.768;26.198;2023-04-24T20:14:49;7.67;;;4.10;;
9248;SDS011;4660;41.768;26.198;2023-04-24T20:17:17;8.13;;;4.03;;
9248;SDS011;4660;41.768;26.198;2023-04-24T20:19:43;7.55;;;4.03;;
9248;SDS011;4660;41.768;26.198;2023-04-24T20:22:11;9.00;;;3.97;;
9248;SDS011;4660;41.768;26.198;2023-04-24T20:24:42;6.00;;;3.60;;
9248;SDS011;4660;41.768;26.198;2023-04-24T20:27:10;4.57;;;3.60;;
9248;SDS011;4660;41.768;26.198;2023-04-24T20:29:43;5.43;;;3.60;;
9248;SDS011;4660;41.768;26.198;2023-04-24T20:32:23;5.50;;;3.20;;
9248;SDS011;4660;41.768;26.198;2023-04-24T20:34:52;4.23;;;3.20;;
9248;SDS011;4660;41.768;26.198;2023-04-24T20:37:21;7.17;;;3.33;;
9248;SDS011;4660;41.768;26.198;2023-04-24T20:39:50;4.70;;;3.17;;
9248;SDS011;4660;41.768;26.198;2023-04-24T20:42:55;7.07;;;3.20;;
9248;SDS011;4660;41.768;26.198;2023-04-24T20:45:22;3.37;;;3.07;;
9248;SDS011;4660;41.768;26.198;2023-04-24T20:47:51;5.07;;;3.60;;
9248;SDS011;4660;41.768;26.198;2023-04-24T20:50:17;3.30;;;3.00;;
9248;SDS011;4660;41.768;26.198;2023-04-24T20:52:46;5.93;;;3.53;;
9248;SDS011;4660;41.768;26.198;2023-04-24T20:57:49;8.57;;;3.67;;
9248;SDS011;4660;41.768;26.198;2023-04-24T21:00:16;5.60;;;3.00;;